sensor_id;sensor_type;location;lat;lon;timestamp;pressure;altitude;pressure_sealevel;temperature;humidity
58919;BME280;44704;50.122;19.932;2023-01-31T00:01:38;97574.41;;;0.38;95.75
58919;BME280;44704;50.122;19.932;2023-01-31T00:04:08;97577.86;;;0.33;96.01
58919;BME280;44704;50.122;19.932;2023-01-31T00:06:40;97578.02;;;0.30;95.99
58919;BME280;44704;50.122;19.932;2023-01-31T00:09:10;97580.89;;;0.27;96.42
58919;BME280;44704;50.122;19.932;2023-01-31T00:11:37;97580.29;;;0.25;96.60
58919;BME280;44704;50.122;19.932;2023-01-31T00:14:05;97582.48;;;0.23;96.68
58919;BME280;44704;50.122;19.932;2023-01-31T00:16:32;97579.35;;;0.22;97.05
58919;BME280;44704;50.122;19.932;2023-01-31T00:18:59;97587.83;;;0.22;97.20
58919;BME280;44704;50.122;19.932;2023-01-31T00:21:29;97587.66;;;0.22;97.37
58919;BME280;44704;50.122;19.932;2023-01-31T00:23:56;97585.52;;;0.22;97.49
58919;BME280;44704;50.122;19.932;2023-01-31T00:26:26;97581.94;;;0.21;97.58
58919;BME280;44704;50.122;19.932;2023-01-31T00:28:56;97587.09;;;0.21;97.61
58919;BME280;44704;50.122;19.932;2023-01-31T00:31:25;97597.75;;;0.21;97.89
58919;BME280;44704;50.122;19.932;2023-01-31T00:33:53;97594.95;;;0.20;98.16
58919;BME280;44704;50.122;19.932;2023-01-31T00:36:26;97596.75;;;0.20;98.08
58919;BME280;44704;50.122;19.932;2023-01-31T00:38:55;97595.31;;;0.20;98.21
58919;BME280;44704;50.122;19.932;2023-01-31T00:41:23;97598.16;;;0.21;98.22
58919;BME280;44704;50.122;19.932;2023-01-31T00:43:51;97601.53;;;0.19;98.40
58919;BME280;44704;50.122;19.932;2023-01-31T00:46:18;97605.73;;;0.18;98.24
58919;BME280;44704;50.122;19.932;2023-01-31T00:48:46;97601.15;;;0.18;98.24
58919;BME280;44704;50.122;19.932;2023-01-31T00:51:14;97601.09;;;0.18;98.29
58919;BME280;44704;50.122;19.932;2023-01-31T00:53:41;97596.69;;;0.20;98.46
58919;BME280;44704;50.122;19.932;2023-01-31T00:56:13;97598.36;;;0.19;98.46
58919;BME280;44704;50.122;19.932;2023-01-31T00:58:41;97602.36;;;0.20;98.17
58919;BME280;44704;50.122;19.932;2023-01-31T01:01:21;97607.27;;;0.21;98.28
58919;BME280;44704;50.122;19.932;2023-01-31T01:03:51;97615.71;;;0.21;98.14
58919;BME280;44704;50.122;19.932;2023-01-31T01:06:18;97626.05;;;0.22;98.39
58919;BME280;44704;50.122;19.932;2023-01-31T01:08:46;97627.12;;;0.20;98.26
58919;BME280;44704;50.122;19.932;2023-01-31T01:11:16;97636.02;;;0.19;98.20
58919;BME280;44704;50.122;19.932;2023-01-31T01:13:44;97635.80;;;0.18;98.12
58919;BME280;44704;50.122;19.932;2023-01-31T01:16:17;97638.30;;;0.15;98.24
58919;BME280;44704;50.122;19.932;2023-01-31T01:18:46;97634.66;;;0.13;98.26
58919;BME280;44704;50.122;19.932;2023-01-31T01:21:20;97627.94;;;0.11;98.50
58919;BME280;44704;50.122;19.932;2023-01-31T01:23:48;97628.21;;;0.10;98.70
58919;BME280;44704;50.122;19.932;2023-01-31T01:26:21;97635.35;;;0.10;98.74
58919;BME280;44704;50.122;19.932;2023-01-31T01:28:49;97635.55;;;0.10;98.89
58919;BME280;44704;50.122;19.932;2023-01-31T01:31:17;97637.08;;;0.09;99.21
58919;BME280;44704;50.122;19.932;2023-01-31T01:33:46;97634.23;;;0.09;98.85
58919;BME280;44704;50.122;19.932;2023-01-31T01:36:15;97632.59;;;0.09;99.11
58919;BME280;44704;50.122;19.932;2023-01-31T01:38:44;97633.33;;;0.09;99.24
58919;BME280;44704;50.122;19.932;2023-01-31T01:41:12;97640.88;;;0.10;99.35
58919;BME280;44704;50.122;19.932;2023-01-31T01:43:54;97641.98;;;0.11;99.52
58919;BME280;44704;50.122;19.932;2023-01-31T01:46:39;97643.92;;;0.11;99.51
58919;BME280;44704;50.122;19.932;2023-01-31T01:49:19;97644.34;;;0.12;99.86
58919;BME280;44704;50.122;19.932;2023-01-31T01:51:50;97648.30;;;0.14;99.44
58919;BME280;44704;50.122;19.932;2023-01-31T01:54:21;97650.03;;;0.14;99.79
58919;BME280;44704;50.122;19.932;2023-01-31T01:56:55;97651.84;;;0.15;99.82
58919;BME280;44704;50.122;19.932;2023-01-31T01:59:30;97656.79;;;0.15;99.89
58919;BME280;44704;50.122;19.932;2023-01-31T02:01:59;97662.61;;;0.17;99.82
58919;BME280;44704;50.122;19.932;2023-01-31T02:04:32;97661.78;;;0.18;99.91
58919;BME280;44704;50.122;19.932;2023-01-31T02:07:00;97667.76;;;0.19;99.91
58919;BME280;44704;50.122;19.932;2023-01-31T02:10:00;97668.97;;;0.20;100.00
58919;BME280;44704;50.122;19.932;2023-01-31T02:12:29;97671.48;;;0.21;99.95
58919;BME280;44704;50.122;19.932;2023-01-31T02:14:57;97678.36;;;0.22;99.99
58919;BME280;44704;50.122;19.932;2023-01-31T02:17:24;97680.47;;;0.22;99.94
58919;BME280;44704;50.122;19.932;2023-01-31T02:20:13;97686.90;;;0.23;100.00
58919;BME280;44704;50.122;19.932;2023-01-31T02:23:18;97689.41;;;0.24;100.00
58919;BME280;44704;50.122;19.932;2023-01-31T02:36:55;97690.17;;;0.33;99.86
58919;BME280;44704;50.122;19.932;2023-01-31T02:50:24;97708.67;;;0.37;99.79
58919;BME280;44704;50.122;19.932;2023-01-31T02:55:29;97724.11;;;0.39;99.36
58919;BME280;44704;50.122;19.932;2023-01-31T02:58:18;97733.26;;;0.40;99.14
58919;BME280;44704;50.122;19.932;2023-01-31T03:00:48;97737.23;;;0.41;99.28
58919;BME280;44704;50.122;19.932;2023-01-31T03:03:22;97737.55;;;0.43;99.19
58919;BME280;44704;50.122;19.932;2023-01-31T03:08:57;97750.93;;;0.46;98.98
58919;BME280;44704;50.122;19.932;2023-01-31T03:11:37;97754.14;;;0.47;98.84
58919;BME280;44704;50.122;19.932;2023-01-31T03:17:12;97754.55;;;0.49;98.77
58919;BME280;44704;50.122;19.932;2023-01-31T03:22:52;97762.86;;;0.50;98.57
58919;BME280;44704;50.122;19.932;2023-01-31T03:25:22;97763.42;;;0.50;98.54
58919;BME280;44704;50.122;19.932;2023-01-31T03:27:56;97766.91;;;0.52;98.13
58919;BME280;44704;50.122;19.932;2023-01-31T03:30:31;97769.75;;;0.53;97.72
58919;BME280;44704;50.122;19.932;2023-01-31T03:33:09;97766.55;;;0.56;96.98
58919;BME280;44704;50.122;19.932;2023-01-31T03:35:42;97769.95;;;0.59;96.52
58919;BME280;44704;50.122;19.932;2023-01-31T03:38:46;97781.50;;;0.62;95.93
58919;BME280;44704;50.122;19.932;2023-01-31T03:41:29;97786.38;;;0.64;95.72
58919;BME280;44704;50.122;19.932;2023-01-31T03:47:02;97805.92;;;0.66;95.21
58919;BME280;44704;50.122;19.932;2023-01-31T03:49:32;97799.68;;;0.68;95.25
58919;BME280;44704;50.122;19.932;2023-01-31T03:52:04;97801.32;;;0.68;95.01
58919;BME280;44704;50.122;19.932;2023-01-31T03:54:38;97812.91;;;0.68;95.00
58919;BME280;44704;50.122;19.932;2023-01-31T03:57:18;97812.45;;;0.67;94.88
58919;BME280;44704;50.122;19.932;2023-01-31T03:59:49;97818.26;;;0.67;94.96
58919;BME280;44704;50.122;19.932;2023-01-31T04:02:25;97813.10;;;0.65;94.76
58919;BME280;44704;50.122;19.932;2023-01-31T04:04:57;97814.08;;;0.64;94.75
58919;BME280;44704;50.122;19.932;2023-01-31T04:07:28;97822.85;;;0.64;94.51
58919;BME280;44704;50.122;19.932;2023-01-31T04:09:55;97820.46;;;0.63;94.68
58919;BME280;44704;50.122;19.932;2023-01-31T04:12:22;97822.27;;;0.63;94.55
58919;BME280;44704;50.122;19.932;2023-01-31T04:14:49;97830.39;;;0.62;94.54
58919;BME280;44704;50.122;19.932;2023-01-31T04:17:16;97835.99;;;0.62;94.27
58919;BME280;44704;50.122;19.932;2023-01-31T04:19:43;97831.23;;;0.62;94.63
58919;BME280;44704;50.122;19.932;2023-01-31T04:22:10;97831.13;;;0.61;94.62
58919;BME280;44704;50.122;19.932;2023-01-31T04:24:36;97836.73;;;0.61;94.33
58919;BME280;44704;50.122;19.932;2023-01-31T04:27:03;97841.05;;;0.60;94.20
58919;BME280;44704;50.122;19.932;2023-01-31T04:29:30;97840.39;;;0.59;94.08
58919;BME280;44704;50.122;19.932;2023-01-31T04:31:57;97841.73;;;0.58;94.01
58919;BME280;44704;50.122;19.932;2023-01-31T04:34:24;97841.40;;;0.54;94.06
58919;BME280;44704;50.122;19.932;2023-01-31T04:36:51;97848.73;;;0.53;93.89
58919;BME280;44704;50.122;19.932;2023-01-31T04:39:18;97852.66;;;0.50;93.90
58919;BME280;44704;50.122;19.932;2023-01-31T04:41:45;97862.13;;;0.49;93.94
58919;BME280;44704;50.122;19.932;2023-01-31T04:44:11;97857.52;;;0.46;93.82
58919;BME280;44704;50.122;19.932;2023-01-31T04:46:38;97867.23;;;0.42;93.86
58919;BME280;44704;50.122;19.932;2023-01-31T04:49:05;97877.59;;;0.41;94.00
58919;BME280;44704;50.122;19.932;2023-01-31T04:51:32;97876.92;;;0.38;94.03
58919;BME280;44704;50.122;19.932;2023-01-31T04:53:59;97874.93;;;0.35;94.00
58919;BME280;44704;50.122;19.932;2023-01-31T04:56:27;97876.35;;;0.34;93.99
58919;BME280;44704;50.122;19.932;2023-01-31T04:58:54;97885.86;;;0.33;93.97
58919;BME280;44704;50.122;19.932;2023-01-31T05:01:21;97896.32;;;0.32;94.13
58919;BME280;44704;50.122;19.932;2023-01-31T05:03:48;97903.98;;;0.33;94.08
58919;BME280;44704;50.122;19.932;2023-01-31T05:06:14;97905.05;;;0.32;94.12
58919;BME280;44704;50.122;19.932;2023-01-31T05:08:41;97904.39;;;0.32;94.26
58919;BME280;44704;50.122;19.932;2023-01-31T05:11:08;97909.87;;;0.31;94.20
58919;BME280;44704;50.122;19.932;2023-01-31T05:13:36;97910.31;;;0.31;94.50
58919;BME280;44704;50.122;19.932;2023-01-31T05:16:09;97920.87;;;0.31;94.64
58919;BME280;44704;50.122;19.932;2023-01-31T05:18:37;97927.41;;;0.30;94.85
58919;BME280;44704;50.122;19.932;2023-01-31T05:21:05;97932.41;;;0.28;94.90
58919;BME280;44704;50.122;19.932;2023-01-31T05:23:33;97933.48;;;0.28;95.12
58919;BME280;44704;50.122;19.932;2023-01-31T05:26:00;97935.63;;;0.28;94.91
58919;BME280;44704;50.122;19.932;2023-01-31T05:28:27;97945.77;;;0.28;94.94
58919;BME280;44704;50.122;19.932;2023-01-31T05:31:01;97950.39;;;0.29;95.11
58919;BME280;44704;50.122;19.932;2023-01-31T05:33:29;97950.27;;;0.30;94.90
58919;BME280;44704;50.122;19.932;2023-01-31T05:35:57;97951.46;;;0.30;94.89
58919;BME280;44704;50.122;19.932;2023-01-31T05:38:24;97952.42;;;0.31;94.65
58919;BME280;44704;50.122;19.932;2023-01-31T05:40:51;97958.55;;;0.32;94.62
58919;BME280;44704;50.122;19.932;2023-01-31T05:43:18;97961.00;;;0.32;94.37
58919;BME280;44704;50.122;19.932;2023-01-31T05:45:47;97963.48;;;0.32;94.33
58919;BME280;44704;50.122;19.932;2023-01-31T05:48:14;97965.88;;;0.33;93.80
58919;BME280;44704;50.122;19.932;2023-01-31T05:50:41;97969.79;;;0.33;93.40
58919;BME280;44704;50.122;19.932;2023-01-31T05:53:11;97978.62;;;0.34;93.10
58919;BME280;44704;50.122;19.932;2023-01-31T05:55:38;97983.40;;;0.34;92.90
58919;BME280;44704;50.122;19.932;2023-01-31T05:58:04;97984.20;;;0.35;92.37
58919;BME280;44704;50.122;19.932;2023-01-31T06:00:31;97986.14;;;0.35;91.95
58919;BME280;44704;50.122;19.932;2023-01-31T06:02:58;97986.51;;;0.36;92.08
58919;BME280;44704;50.122;19.932;2023-01-31T06:05:26;97994.19;;;0.38;91.74
58919;BME280;44704;50.122;19.932;2023-01-31T06:07:53;97994.74;;;0.39;91.65
58919;BME280;44704;50.122;19.932;2023-01-31T06:10:20;97998.09;;;0.40;91.33
58919;BME280;44704;50.122;19.932;2023-01-31T06:12:47;98002.25;;;0.40;91.09
58919;BME280;44704;50.122;19.932;2023-01-31T06:15:15;98004.90;;;0.38;91.11
58919;BME280;44704;50.122;19.932;2023-01-31T06:17:42;98008.12;;;0.38;90.76
58919;BME280;44704;50.122;19.932;2023-01-31T06:20:09;98016.11;;;0.38;90.08
58919;BME280;44704;50.122;19.932;2023-01-31T06:22:36;98023.75;;;0.39;89.81
58919;BME280;44704;50.122;19.932;2023-01-31T06:25:03;98024.57;;;0.39;89.63
58919;BME280;44704;50.122;19.932;2023-01-31T06:27:32;98029.48;;;0.39;89.79
58919;BME280;44704;50.122;19.932;2023-01-31T06:29:59;98029.83;;;0.37;89.58
58919;BME280;44704;50.122;19.932;2023-01-31T06:32:26;98038.31;;;0.36;89.18
58919;BME280;44704;50.122;19.932;2023-01-31T06:34:53;98039.88;;;0.37;88.99
58919;BME280;44704;50.122;19.932;2023-01-31T06:37:20;98045.60;;;0.37;89.03
58919;BME280;44704;50.122;19.932;2023-01-31T06:39:46;98045.67;;;0.36;89.16
58919;BME280;44704;50.122;19.932;2023-01-31T06:42:13;98047.94;;;0.36;89.38
58919;BME280;44704;50.122;19.932;2023-01-31T06:44:40;98044.28;;;0.37;89.20
58919;BME280;44704;50.122;19.932;2023-01-31T06:47:07;98052.70;;;0.38;89.27
58919;BME280;44704;50.122;19.932;2023-01-31T06:49:34;98057.01;;;0.40;89.29
58919;BME280;44704;50.122;19.932;2023-01-31T06:52:01;98063.87;;;0.41;89.35
58919;BME280;44704;50.122;19.932;2023-01-31T06:54:27;98064.73;;;0.42;89.60
58919;BME280;44704;50.122;19.932;2023-01-31T06:56:54;98066.02;;;0.43;89.77
58919;BME280;44704;50.122;19.932;2023-01-31T06:59:21;98073.73;;;0.43;90.02
58919;BME280;44704;50.122;19.932;2023-01-31T07:01:48;98076.45;;;0.43;89.85
58919;BME280;44704;50.122;19.932;2023-01-31T07:04:15;98086.88;;;0.44;90.00
58919;BME280;44704;50.122;19.932;2023-01-31T07:06:42;98088.23;;;0.44;89.99
58919;BME280;44704;50.122;19.932;2023-01-31T07:09:10;98096.21;;;0.45;90.11
58919;BME280;44704;50.122;19.932;2023-01-31T07:11:37;98099.75;;;0.45;90.33
58919;BME280;44704;50.122;19.932;2023-01-31T07:14:04;98108.39;;;0.46;90.34
58919;BME280;44704;50.122;19.932;2023-01-31T07:16:31;98113.04;;;0.46;90.72
58919;BME280;44704;50.122;19.932;2023-01-31T07:18:58;98119.63;;;0.46;90.82
58919;BME280;44704;50.122;19.932;2023-01-31T07:21:25;98123.14;;;0.47;90.84
58919;BME280;44704;50.122;19.932;2023-01-31T07:23:52;98126.32;;;0.47;91.06
58919;BME280;44704;50.122;19.932;2023-01-31T07:26:19;98129.71;;;0.49;91.17
58919;BME280;44704;50.122;19.932;2023-01-31T07:28:46;98138.10;;;0.50;91.12
58919;BME280;44704;50.122;19.932;2023-01-31T07:31:13;98141.20;;;0.51;91.17
58919;BME280;44704;50.122;19.932;2023-01-31T07:33:40;98139.58;;;0.51;91.34
58919;BME280;44704;50.122;19.932;2023-01-31T07:36:11;98145.34;;;0.52;91.42
58919;BME280;44704;50.122;19.932;2023-01-31T07:38:39;98147.37;;;0.53;91.35
58919;BME280;44704;50.122;19.932;2023-01-31T07:41:07;98149.16;;;0.55;91.51
58919;BME280;44704;50.122;19.932;2023-01-31T07:43:36;98152.20;;;0.58;91.44
58919;BME280;44704;50.122;19.932;2023-01-31T07:46:05;98151.73;;;0.60;91.46
58919;BME280;44704;50.122;19.932;2023-01-31T07:48:34;98155.86;;;0.61;91.28
58919;BME280;44704;50.122;19.932;2023-01-31T07:51:02;98157.79;;;0.63;91.20
58919;BME280;44704;50.122;19.932;2023-01-31T07:53:32;98158.19;;;0.65;91.30
58919;BME280;44704;50.122;19.932;2023-01-31T07:56:13;98157.33;;;0.66;91.23
58919;BME280;44704;50.122;19.932;2023-01-31T07:58:42;98160.86;;;0.68;91.27
58919;BME280;44704;50.122;19.932;2023-01-31T08:01:14;98164.80;;;0.71;91.11
58919;BME280;44704;50.122;19.932;2023-01-31T08:04:01;98165.95;;;0.75;91.06
58919;BME280;44704;50.122;19.932;2023-01-31T08:06:29;98167.39;;;0.78;90.74
58919;BME280;44704;50.122;19.932;2023-01-31T08:08:57;98176.36;;;0.80;90.58
58919;BME280;44704;50.122;19.932;2023-01-31T08:11:24;98177.41;;;0.82;90.37
58919;BME280;44704;50.122;19.932;2023-01-31T08:13:51;98178.98;;;0.85;90.35
58919;BME280;44704;50.122;19.932;2023-01-31T08:16:19;98177.84;;;0.90;90.32
58919;BME280;44704;50.122;19.932;2023-01-31T08:18:47;98182.41;;;0.93;90.05
58919;BME280;44704;50.122;19.932;2023-01-31T08:21:15;98177.23;;;0.96;89.64
58919;BME280;44704;50.122;19.932;2023-01-31T08:23:42;98182.05;;;0.98;89.20
58919;BME280;44704;50.122;19.932;2023-01-31T08:26:16;98188.23;;;0.99;89.22
58919;BME280;44704;50.122;19.932;2023-01-31T08:28:45;98190.35;;;1.00;89.16
58919;BME280;44704;50.122;19.932;2023-01-31T08:31:18;98196.88;;;1.01;89.19
58919;BME280;44704;50.122;19.932;2023-01-31T08:33:46;98210.63;;;1.02;88.77
58919;BME280;44704;50.122;19.932;2023-01-31T08:36:18;98211.56;;;1.04;88.68
58919;BME280;44704;50.122;19.932;2023-01-31T08:38:47;98210.30;;;1.06;88.66
58919;BME280;44704;50.122;19.932;2023-01-31T08:41:16;98215.94;;;1.08;88.62
58919;BME280;44704;50.122;19.932;2023-01-31T08:43:44;98218.39;;;1.09;88.35
58919;BME280;44704;50.122;19.932;2023-01-31T08:46:11;98224.76;;;1.11;88.58
58919;BME280;44704;50.122;19.932;2023-01-31T08:48:38;98227.23;;;1.13;88.50
58919;BME280;44704;50.122;19.932;2023-01-31T08:51:09;98227.26;;;1.14;88.24
58919;BME280;44704;50.122;19.932;2023-01-31T08:53:37;98230.75;;;1.13;88.22
58919;BME280;44704;50.122;19.932;2023-01-31T08:56:06;98238.23;;;1.13;88.30
58919;BME280;44704;50.122;19.932;2023-01-31T08:58:36;98246.23;;;1.12;88.45
58919;BME280;44704;50.122;19.932;2023-01-31T09:01:06;98244.35;;;1.10;88.47
58919;BME280;44704;50.122;19.932;2023-01-31T09:03:33;98241.02;;;1.08;88.62
58919;BME280;44704;50.122;19.932;2023-01-31T09:06:02;98240.71;;;1.08;88.50
58919;BME280;44704;50.122;19.932;2023-01-31T09:08:31;98244.80;;;1.08;88.68
58919;BME280;44704;50.122;19.932;2023-01-31T09:10:58;98245.71;;;1.08;88.66
58919;BME280;44704;50.122;19.932;2023-01-31T09:13:27;98251.02;;;1.10;88.56
58919;BME280;44704;50.122;19.932;2023-01-31T09:18:25;98256.36;;;1.11;88.32
58919;BME280;44704;50.122;19.932;2023-01-31T09:20:52;98258.02;;;1.12;88.24
58919;BME280;44704;50.122;19.932;2023-01-31T09:23:19;98255.77;;;1.13;88.12
58919;BME280;44704;50.122;19.932;2023-01-31T09:25:53;98252.75;;;1.14;88.03
58919;BME280;44704;50.122;19.932;2023-01-31T09:28:21;98251.33;;;1.16;87.92
58919;BME280;44704;50.122;19.932;2023-01-31T09:30:49;98251.14;;;1.17;87.82
58919;BME280;44704;50.122;19.932;2023-01-31T09:33:19;98250.66;;;1.19;87.64
58919;BME280;44704;50.122;19.932;2023-01-31T09:36:04;98253.71;;;1.20;87.40
58919;BME280;44704;50.122;19.932;2023-01-31T09:38:32;98253.66;;;1.22;87.44
58919;BME280;44704;50.122;19.932;2023-01-31T09:41:02;98249.32;;;1.25;87.41
58919;BME280;44704;50.122;19.932;2023-01-31T09:43:33;98253.36;;;1.28;87.05
58919;BME280;44704;50.122;19.932;2023-01-31T09:46:05;98256.95;;;1.31;86.45
58919;BME280;44704;50.122;19.932;2023-01-31T09:48:38;98256.83;;;1.32;86.64
58919;BME280;44704;50.122;19.932;2023-01-31T09:51:09;98257.75;;;1.33;86.31
58919;BME280;44704;50.122;19.932;2023-01-31T09:53:40;98257.94;;;1.35;86.45
58919;BME280;44704;50.122;19.932;2023-01-31T09:58:54;98258.64;;;1.37;86.19
58919;BME280;44704;50.122;19.932;2023-01-31T10:07:33;98254.54;;;1.33;86.72
58919;BME280;44704;50.122;19.932;2023-01-31T10:10:16;98255.42;;;1.28;87.04
58919;BME280;44704;50.122;19.932;2023-01-31T10:12:49;98256.40;;;1.23;87.46
58919;BME280;44704;50.122;19.932;2023-01-31T10:18:02;98258.44;;;1.13;88.05
58919;BME280;44704;50.122;19.932;2023-01-31T10:20:43;98260.67;;;1.10;88.34
58919;BME280;44704;50.122;19.932;2023-01-31T10:25:52;98255.61;;;1.04;88.90
58919;BME280;44704;50.122;19.932;2023-01-31T10:28:36;98257.50;;;1.02;89.16
58919;BME280;44704;50.122;19.932;2023-01-31T10:31:33;98255.34;;;1.01;89.45
58919;BME280;44704;50.122;19.932;2023-01-31T10:34:07;98257.48;;;1.01;89.49
58919;BME280;44704;50.122;19.932;2023-01-31T10:36:41;98259.33;;;1.00;89.39
58919;BME280;44704;50.122;19.932;2023-01-31T10:44:24;98269.13;;;0.98;88.72
58919;BME280;44704;50.122;19.932;2023-01-31T10:46:57;98275.34;;;0.98;88.80
58919;BME280;44704;50.122;19.932;2023-01-31T10:49:26;98269.05;;;1.00;88.80
58919;BME280;44704;50.122;19.932;2023-01-31T10:57:05;98271.41;;;1.07;88.58
58919;BME280;44704;50.122;19.932;2023-01-31T10:59:39;98272.19;;;1.09;88.52
58919;BME280;44704;50.122;19.932;2023-01-31T11:02:25;98270.59;;;1.12;88.35
58919;BME280;44704;50.122;19.932;2023-01-31T11:04:57;98263.64;;;1.13;88.03
58919;BME280;44704;50.122;19.932;2023-01-31T11:07:29;98261.22;;;1.14;88.11
58919;BME280;44704;50.122;19.932;2023-01-31T11:09:57;98256.75;;;1.17;87.56
58919;BME280;44704;50.122;19.932;2023-01-31T11:12:42;98256.23;;;1.18;86.95
58919;BME280;44704;50.122;19.932;2023-01-31T11:15:19;98250.68;;;1.21;86.93
58919;BME280;44704;50.122;19.932;2023-01-31T11:17:46;98251.37;;;1.23;86.44
58919;BME280;44704;50.122;19.932;2023-01-31T11:20:24;98254.74;;;1.26;86.36
58919;BME280;44704;50.122;19.932;2023-01-31T11:22:54;98252.16;;;1.28;85.28
58919;BME280;44704;50.122;19.932;2023-01-31T11:25:24;98248.80;;;1.29;85.03
58919;BME280;44704;50.122;19.932;2023-01-31T11:27:53;98246.33;;;1.30;85.07
58919;BME280;44704;50.122;19.932;2023-01-31T11:30:28;98244.89;;;1.32;84.31
58919;BME280;44704;50.122;19.932;2023-01-31T11:32:57;98250.86;;;1.31;83.69
58919;BME280;44704;50.122;19.932;2023-01-31T11:35:29;98254.91;;;1.30;83.39
58919;BME280;44704;50.122;19.932;2023-01-31T11:38:18;98256.82;;;1.28;83.11
58919;BME280;44704;50.122;19.932;2023-01-31T11:40:48;98254.05;;;1.26;83.74
58919;BME280;44704;50.122;19.932;2023-01-31T11:45:51;98254.92;;;1.27;83.34
58919;BME280;44704;50.122;19.932;2023-01-31T11:48:40;98254.41;;;1.27;82.99
58919;BME280;44704;50.122;19.932;2023-01-31T11:51:09;98248.86;;;1.29;83.27
58919;BME280;44704;50.122;19.932;2023-01-31T11:53:42;98248.84;;;1.30;83.24
58919;BME280;44704;50.122;19.932;2023-01-31T11:56:14;98250.33;;;1.30;82.40
58919;BME280;44704;50.122;19.932;2023-01-31T11:58:43;98245.06;;;1.28;82.15
58919;BME280;44704;50.122;19.932;2023-01-31T12:01:15;98242.66;;;1.27;82.35
58919;BME280;44704;50.122;19.932;2023-01-31T12:03:56;98243.73;;;1.27;82.28
58919;BME280;44704;50.122;19.932;2023-01-31T12:06:36;98247.81;;;1.26;82.21
58919;BME280;44704;50.122;19.932;2023-01-31T12:09:18;98244.84;;;1.27;82.48
58919;BME280;44704;50.122;19.932;2023-01-31T12:11:54;98247.66;;;1.27;82.83
58919;BME280;44704;50.122;19.932;2023-01-31T12:14:23;98243.67;;;1.30;83.12
58919;BME280;44704;50.122;19.932;2023-01-31T12:16:53;98242.50;;;1.32;83.35
58919;BME280;44704;50.122;19.932;2023-01-31T12:19:28;98239.53;;;1.32;83.15
58919;BME280;44704;50.122;19.932;2023-01-31T12:22:08;98233.03;;;1.31;83.33
58919;BME280;44704;50.122;19.932;2023-01-31T12:38:39;98221.81;;;1.48;83.94
58919;BME280;44704;50.122;19.932;2023-01-31T12:42:28;98215.99;;;1.57;84.37
58919;BME280;44704;50.122;19.932;2023-01-31T12:47:05;98213.11;;;1.69;83.62
58919;BME280;44704;50.122;19.932;2023-01-31T12:57:55;98214.15;;;2.03;82.68
58919;BME280;44704;50.122;19.932;2023-01-31T13:00:39;98210.80;;;2.08;82.09
58919;BME280;44704;50.122;19.932;2023-01-31T13:08:19;98200.80;;;2.37;80.71
58919;BME280;44704;50.122;19.932;2023-01-31T13:13:28;98207.34;;;2.43;79.43
58919;BME280;44704;50.122;19.932;2023-01-31T13:16:04;98200.01;;;2.43;78.75
58919;BME280;44704;50.122;19.932;2023-01-31T13:18:36;98200.61;;;2.40;78.55
58919;BME280;44704;50.122;19.932;2023-01-31T13:21:07;98194.34;;;2.35;78.28
58919;BME280;44704;50.122;19.932;2023-01-31T13:23:44;98195.84;;;2.30;78.15
58919;BME280;44704;50.122;19.932;2023-01-31T13:26:22;98194.65;;;2.28;78.46
58919;BME280;44704;50.122;19.932;2023-01-31T13:28:59;98194.54;;;2.26;78.17
58919;BME280;44704;50.122;19.932;2023-01-31T13:31:33;98199.07;;;2.23;77.89
58919;BME280;44704;50.122;19.932;2023-01-31T13:36:39;98197.36;;;2.20;78.43
58919;BME280;44704;50.122;19.932;2023-01-31T13:39:16;98191.11;;;2.18;78.51
58919;BME280;44704;50.122;19.932;2023-01-31T13:41:45;98187.59;;;2.16;78.28
58919;BME280;44704;50.122;19.932;2023-01-31T13:44:13;98187.81;;;2.13;78.49
58919;BME280;44704;50.122;19.932;2023-01-31T13:46:53;98190.98;;;2.10;78.95
58919;BME280;44704;50.122;19.932;2023-01-31T13:49:32;98195.54;;;2.05;78.94
58919;BME280;44704;50.122;19.932;2023-01-31T13:52:44;98196.40;;;2.00;79.46
58919;BME280;44704;50.122;19.932;2023-01-31T13:54:55;98197.83;;;1.90;79.75
58919;BME280;44704;50.122;19.932;2023-01-31T13:57:27;98203.59;;;1.82;80.15
58919;BME280;44704;50.122;19.932;2023-01-31T14:03:02;98199.70;;;1.70;81.02
58919;BME280;44704;50.122;19.932;2023-01-31T14:10:56;98196.70;;;1.61;81.89
58919;BME280;44704;50.122;19.932;2023-01-31T14:13:25;98198.00;;;1.59;81.85
58919;BME280;44704;50.122;19.932;2023-01-31T14:15:54;98194.00;;;1.60;82.16
58919;BME280;44704;50.122;19.932;2023-01-31T14:18:54;98186.29;;;1.60;82.53
58919;BME280;44704;50.122;19.932;2023-01-31T14:23:58;98182.22;;;1.53;82.57
58919;BME280;44704;50.122;19.932;2023-01-31T14:29:08;98183.66;;;1.43;82.42
58919;BME280;44704;50.122;19.932;2023-01-31T14:31:38;98183.38;;;1.38;82.70
58919;BME280;44704;50.122;19.932;2023-01-31T14:34:22;98189.52;;;1.34;82.80
58919;BME280;44704;50.122;19.932;2023-01-31T14:40:03;98185.50;;;1.30;83.24
58919;BME280;44704;50.122;19.932;2023-01-31T14:46:11;98179.77;;;1.26;83.37
58919;BME280;44704;50.122;19.932;2023-01-31T14:49:06;98175.59;;;1.25;83.46
58919;BME280;44704;50.122;19.932;2023-01-31T15:00:14;98166.31;;;1.18;83.93
58919;BME280;44704;50.122;19.932;2023-01-31T15:03:11;98159.89;;;1.15;84.10
58919;BME280;44704;50.122;19.932;2023-01-31T15:05:47;98159.12;;;1.11;84.20
58919;BME280;44704;50.122;19.932;2023-01-31T15:14:00;98158.04;;;0.99;84.91
58919;BME280;44704;50.122;19.932;2023-01-31T15:18:58;98152.33;;;0.92;85.39
58919;BME280;44704;50.122;19.932;2023-01-31T15:21:57;98153.10;;;0.91;85.46
58919;BME280;44704;50.122;19.932;2023-01-31T15:24:42;98154.42;;;0.88;85.54
58919;BME280;44704;50.122;19.932;2023-01-31T15:30:00;98151.60;;;0.82;86.05
58919;BME280;44704;50.122;19.932;2023-01-31T15:32:51;98155.91;;;0.79;86.37
58919;BME280;44704;50.122;19.932;2023-01-31T15:41:22;98150.15;;;0.70;87.49
58919;BME280;44704;50.122;19.932;2023-01-31T15:43:54;98153.73;;;0.69;87.77
58919;BME280;44704;50.122;19.932;2023-01-31T15:46:26;98149.70;;;0.67;87.71
58919;BME280;44704;50.122;19.932;2023-01-31T15:48:54;98148.91;;;0.67;88.10
58919;BME280;44704;50.122;19.932;2023-01-31T15:51:21;98145.87;;;0.67;88.10